Torm Ingeborg — OWDC2 — position and weather

sailwx.info

Track history (hours):
 
Tides and Currents Weather Stations Pressure Air Temp Water Temp Dewpoint Dewpoint Depression Visibility Wind Speed Wind Dir Waves Ship Positions

Torm Ingeborg

Last reported at 2018-Jun-25 04:06 UTC. Time now 2018-Jun-25 14:06 UTC.
Position N 23°13' E 117°22'.

Length 292 m; draft 9.1 m.

Type: Ship (hazmat cat A). MMSI: 220640000.

Date/timePositionNaut miles runAvg speedWind from/ knotsBaromVisibWave heightAir tempDewpointWater temp
2018-Jun-25 04:06N 23°13' E 117°22'217.5
2018-Jun-25 04:00N 23°15' E 117°24'817.3
2018-Jun-25 03:30N 23°21' E 117°30'917.6
2018-Jun-25 03:01N 23°25' E 117°38'917.7
2018-Jun-25 02:31N 23°31' E 117°46'917.9
2018-Jun-25 02:01N 23°35' E 117°54'816.3
2018-Jun-25 01:31N 23°41' E 118°01'916.4
2018-Jun-25 00:57N 23°47' E 118°08'716.1
2018-Jun-25 00:30N 23°52' E 118°14'815.7
2018-Jun-25 00:00N 23°56' E 118°21'815.8
2018-Jun-24 23:31N 24°01' E 118°28'815.7
2018-Jun-24 23:01N 24°06' E 118°35'815.7
2018-Jun-24 22:30N 24°10' E 118°42'815.5
2018-Jun-24 21:59N 24°14' E 118°50'1315.4
2018-Jun-24 21:09N 24°22' E 119°01'415.4
2018-Jun-24 20:51N 24°25' E 119°05'615.3
2018-Jun-24 20:26N 24°28' E 119°11'  
2018-Jun-22 15:24N 31°07' E 122°18'410.6
2018-Jun-22 15:01N 31°09' E 122°13'812.6
2018-Jun-22 14:22N 31°14' E 122°06'612.2
2018-Jun-22 13:55N 31°15' E 121°59'410.4
2018-Jun-22 13:30N 31°16' E 121°55'8 0.5
2018-Jun-21 21:44N 31°18' E 121°46'2810.9
2018-Jun-21 19:11N 31°07' E 122°16'210.5
2018-Jun-21 18:59N 31°06' E 122°18'8 8.0
2018-Jun-21 18:01N 31°07' E 122°27'0 7.3
2018-Jun-21 17:58N 31°07' E 122°28'24 9.8
2018-Jun-21 15:31N 31°06' E 122°56'111.6
2018-Jun-21 15:28N 31°06' E 122°56'710.8
2018-Jun-21 14:48N 31°06' E 123°05'810.7
2018-Jun-21 14:03N 31°06' E 123°14'111.1
2018-Jun-21 14:00N 31°06' E 123°15'1910.7
2018-Jun-21 12:11N 31°05' E 123°38'  
2018-Jun-18 18:45N 35°00' E 129°21'  
Track history (hours):
 
Tides and Currents Weather Stations Pressure Air Temp Water Temp Dewpoint Dewpoint Depression Visibility Wind Speed Wind Dir Waves Ship Positions

Torm Ingeborg

Last reported at 2018-Jun-25 04:06 UTC. Time now 2018-Jun-25 14:06 UTC.
Position N 23°13' E 117°22'.

Length 292 m; draft 9.1 m.

Type: Ship (hazmat cat A). MMSI: 220640000.

Date/timePositionNaut miles runAvg speedWind from/ knotsBaromVisibWave heightAir tempDewpointWater temp
2018-Jun-25 04:06N 23°13' E 117°22'217.5
2018-Jun-25 04:00N 23°15' E 117°24'817.3
2018-Jun-25 03:30N 23°21' E 117°30'917.6
2018-Jun-25 03:01N 23°25' E 117°38'917.7
2018-Jun-25 02:31N 23°31' E 117°46'917.9
2018-Jun-25 02:01N 23°35' E 117°54'816.3
2018-Jun-25 01:31N 23°41' E 118°01'916.4
2018-Jun-25 00:57N 23°47' E 118°08'716.1
2018-Jun-25 00:30N 23°52' E 118°14'815.7
2018-Jun-25 00:00N 23°56' E 118°21'815.8
2018-Jun-24 23:31N 24°01' E 118°28'815.7
2018-Jun-24 23:01N 24°06' E 118°35'815.7
2018-Jun-24 22:30N 24°10' E 118°42'815.5
2018-Jun-24 21:59N 24°14' E 118°50'1315.4
2018-Jun-24 21:09N 24°22' E 119°01'415.4
2018-Jun-24 20:51N 24°25' E 119°05'615.3
2018-Jun-24 20:26N 24°28' E 119°11'  
2018-Jun-22 15:24N 31°07' E 122°18'410.6
2018-Jun-22 15:01N 31°09' E 122°13'812.6
2018-Jun-22 14:22N 31°14' E 122°06'612.2
2018-Jun-22 13:55N 31°15' E 121°59'410.4
2018-Jun-22 13:30N 31°16' E 121°55'8 0.5
2018-Jun-21 21:44N 31°18' E 121°46'2810.9
2018-Jun-21 19:11N 31°07' E 122°16'210.5
2018-Jun-21 18:59N 31°06' E 122°18'8 8.0
2018-Jun-21 18:01N 31°07' E 122°27'0 7.3
2018-Jun-21 17:58N 31°07' E 122°28'24 9.8
2018-Jun-21 15:31N 31°06' E 122°56'111.6
2018-Jun-21 15:28N 31°06' E 122°56'710.8
2018-Jun-21 14:48N 31°06' E 123°05'810.7
2018-Jun-21 14:03N 31°06' E 123°14'111.1
2018-Jun-21 14:00N 31°06' E 123°15'1910.7
2018-Jun-21 12:11N 31°05' E 123°38'  
2018-Jun-18 18:45N 35°00' E 129°21'  

Dump ship's entire track history